KMIA/MIA METAR and TAF weather

Enter ICAO airport designator
Station Type Date Time Source
KMIA METAR 2022/01/29 13:53 UTC NOAA

KMIA 291353Z 31017G28KT 10SM FEW035 BKN180 10/01 A3013 RMK AO2 PK WND 30028/1352 SLP202 T01000006 $


Station Type Date Time Source
KMIA Decoded METAR 2022/01/29 13:53 UTC NOAA

MIAMI INTERNATIONAL AIRPORT , FL, United States (KMIA) 25-47N 080-19W 8M
Jan 29, 2022 - 08:53 AM EST / 2022.01.29 1353 UTC
Wind: from the NW (310 degrees) at 20 MPH (17 KT) gusting to 32 MPH (28 KT):0
Visibility: 10 mile(s):0
Sky conditions: mostly cloudy
Temperature: 50.0 F (10.0 C)
Dew Point: 33.1 F (0.6 C)
Relative Humidity: 51%
Pressure (altimeter): 30.13 in. Hg (1020 hPa)
ob: KMIA 291353Z 31017G28KT 10SM FEW035 BKN180 10/01 A3013 RMK AO2 PK WND 30028/1352 SLP202 T01000006
cycle: 14

Station Type Date Time Source
KMIA TAF 2022/01/29 12:30 UTC NOAA

TAF KMIA 291129Z 2912/3018 31023G35KT P6SM FEW035
FM292300 31010G20KT P6SM SKC
FM300200 31008KT P6SM SKC
FM301500 32010KT P6SM SKC

Example: see airport list